createdAt,value
2023-08-18T00:01:45.564Z,101939.78
2023-08-18T00:04:12.384Z,101946.53
2023-08-18T00:06:39.118Z,101952.63
2023-08-18T00:09:05.989Z,101944.03
2023-08-18T00:11:32.704Z,101944.59
2023-08-18T00:13:59.474Z,101923.34
2023-08-18T00:16:26.175Z,101937.69
2023-08-18T00:18:52.746Z,101943.59
2023-08-18T00:21:20.178Z,101939.00
2023-08-18T00:23:46.772Z,101934.75
2023-08-18T00:26:13.460Z,101928.84
2023-08-18T00:28:40.374Z,101928.03
2023-08-18T00:31:06.990Z,101925.13
2023-08-18T00:33:33.722Z,101919.66
2023-08-18T00:36:00.384Z,101919.22
2023-08-18T00:38:27.097Z,101914.81
2023-08-18T00:40:55.446Z,101907.03
2023-08-18T00:43:22.442Z,101909.78
2023-08-18T00:45:51.180Z,101915.25
2023-08-18T00:48:18.079Z,101904.78
2023-08-18T00:50:45.785Z,101902.03
2023-08-18T00:53:12.796Z,101899.31
2023-08-18T00:55:40.421Z,101905.22
2023-08-18T00:58:07.391Z,101913.41
2023-08-18T01:00:35.169Z,101909.19
2023-08-18T01:03:05.189Z,101908.56
2023-08-18T01:05:32.681Z,101889.13
2023-08-18T01:08:01.973Z,101903.53
2023-08-18T01:10:31.608Z,101892.50
2023-08-18T01:13:22.608Z,101907.28
2023-08-18T01:15:53.646Z,101895.56
2023-08-18T01:18:21.010Z,101907.69
2023-08-18T01:20:50.180Z,101907.88
2023-08-18T01:23:18.565Z,101885.88
2023-08-18T01:25:45.389Z,101894.72
2023-08-18T01:28:12.253Z,101902.72
2023-08-18T01:30:52.578Z,101897.84
2023-08-18T01:33:19.297Z,101904.19
2023-08-18T01:35:46.486Z,101898.72
2023-08-18T01:38:15.902Z,101884.47
2023-08-18T01:40:43.224Z,101884.88
2023-08-18T01:43:09.908Z,101898.13
2023-08-18T01:45:38.199Z,101896.53
2023-08-18T01:48:05.191Z,101900.31
2023-08-18T01:50:31.960Z,101890.31
2023-08-18T01:52:58.617Z,101881.50
2023-08-18T01:55:25.410Z,101879.44
2023-08-18T01:57:52.578Z,101873.75
2023-08-18T02:00:21.000Z,101891.59
2023-08-18T02:02:51.442Z,101891.84
2023-08-18T02:05:18.311Z,101885.34
2023-08-18T02:07:44.961Z,101876.59
2023-08-18T02:10:11.829Z,101884.06
2023-08-18T02:12:38.593Z,101881.78
2023-08-18T02:15:05.769Z,101878.59
2023-08-18T02:17:32.526Z,101868.09
2023-08-18T02:20:00.505Z,101873.44
2023-08-18T02:22:27.692Z,101878.59
2023-08-18T02:24:54.804Z,101880.13
2023-08-18T02:27:21.851Z,101878.00
2023-08-18T02:29:49.212Z,101872.06
2023-08-18T02:32:19.618Z,101871.16
2023-08-18T02:34:47.203Z,101873.28
2023-08-18T02:37:14.192Z,101878.09
2023-08-18T02:39:40.938Z,101855.34
2023-08-18T02:42:07.718Z,101866.16
2023-08-18T02:44:34.438Z,101872.69
2023-08-18T02:47:01.131Z,101870.84
2023-08-18T02:49:27.890Z,101874.28
2023-08-18T02:51:54.673Z,101864.22
2023-08-18T02:54:21.358Z,101864.22
2023-08-18T02:56:48.202Z,101867.97
2023-08-18T02:59:15.072Z,101864.22
2023-08-18T03:01:41.792Z,101856.09
2023-08-18T03:04:08.694Z,101851.78
2023-08-18T03:06:35.412Z,101857.84
2023-08-18T03:09:02.223Z,101853.28
2023-08-18T03:11:31.714Z,101852.13
2023-08-18T03:13:58.553Z,101850.97
2023-08-18T03:16:25.276Z,101850.59
2023-08-18T03:18:51.998Z,101847.06
2023-08-18T03:21:18.825Z,101849.72
2023-08-18T03:23:45.591Z,101865.31
2023-08-18T03:26:12.477Z,101843.41
2023-08-18T03:28:39.202Z,101854.78
2023-08-18T03:31:08.543Z,101860.25
2023-08-18T03:33:36.187Z,101849.22
2023-08-18T03:36:04.242Z,101842.97
2023-08-18T03:38:31.144Z,101845.31
2023-08-18T03:41:04.473Z,101845.16
2023-08-18T03:43:32.682Z,101858.41
2023-08-18T03:46:01.488Z,101864.28
2023-08-18T03:48:28.592Z,101855.91
2023-08-18T03:50:55.887Z,101859.91
2023-08-18T03:53:25.384Z,101842.69
2023-08-18T03:55:53.582Z,101859.59
2023-08-18T03:58:20.352Z,101861.31
2023-08-18T04:00:47.431Z,101864.97
2023-08-18T04:03:15.060Z,101858.25
2023-08-18T04:05:48.026Z,101861.91
2023-08-18T04:08:16.725Z,101861.13
2023-08-18T04:10:43.434Z,101853.59
2023-08-18T04:13:10.201Z,101842.53
2023-08-18T04:15:37.039Z,101846.88
2023-08-18T04:18:03.954Z,101849.38
2023-08-18T04:20:30.749Z,101855.03
2023-08-18T04:22:57.482Z,101851.94
2023-08-18T04:25:24.702Z,101868.94
2023-08-18T04:27:51.369Z,101866.22
2023-08-18T04:30:18.494Z,101857.50
2023-08-18T04:32:45.192Z,101865.78
2023-08-18T04:35:12.051Z,101857.72
2023-08-18T04:37:38.751Z,101872.50
2023-08-18T04:40:06.500Z,101873.03
2023-08-18T04:42:33.112Z,101864.56
2023-08-18T04:44:59.882Z,101876.25
2023-08-18T04:47:26.528Z,101880.78
2023-08-18T04:49:53.204Z,101879.34
2023-08-18T04:52:19.966Z,101876.97
2023-08-18T04:54:46.648Z,101867.06
2023-08-18T04:57:13.515Z,101870.00
2023-08-18T04:59:40.176Z,101855.94
2023-08-18T05:02:06.854Z,101861.28
2023-08-18T05:04:33.502Z,101867.94
2023-08-18T05:07:01.337Z,101863.25
2023-08-18T05:09:29.749Z,101866.13
2023-08-18T05:11:56.530Z,101860.75
2023-08-18T05:14:23.501Z,101865.44
2023-08-18T05:16:50.165Z,101867.88
2023-08-18T05:19:16.846Z,101858.00
2023-08-18T05:21:43.595Z,101856.38
2023-08-18T05:24:10.503Z,101864.06
2023-08-18T05:26:37.740Z,101857.16
2023-08-18T05:29:06.245Z,101853.78
2023-08-18T05:31:34.490Z,101858.34
2023-08-18T05:34:01.658Z,101851.66
2023-08-18T05:36:29.000Z,101855.38
2023-08-18T05:38:56.432Z,101852.63
2023-08-18T05:41:23.785Z,101841.53
2023-08-18T05:43:50.820Z,101845.09
2023-08-18T05:46:17.900Z,101856.19
2023-08-18T05:48:46.631Z,101856.06
2023-08-18T05:51:15.510Z,101852.59
2023-08-18T05:53:42.419Z,101852.22
2023-08-18T05:56:09.804Z,101859.63
2023-08-18T05:58:37.010Z,101850.91
2023-08-18T06:01:05.217Z,101843.88
2023-08-18T06:03:32.710Z,101849.59
2023-08-18T06:06:21.193Z,101850.00
2023-08-18T06:08:48.616Z,101842.13
2023-08-18T06:11:17.000Z,101850.06
2023-08-18T06:13:44.117Z,101849.09
2023-08-18T06:16:11.429Z,101846.13
2023-08-18T06:18:38.628Z,101844.88
2023-08-18T06:21:08.238Z,101841.22
2023-08-18T06:23:37.585Z,101841.34
2023-08-18T06:26:04.303Z,101834.84
2023-08-18T06:28:31.107Z,101832.41
2023-08-18T06:31:05.716Z,101835.69
2023-08-18T06:33:33.942Z,101823.47
2023-08-18T06:36:01.515Z,101813.84
2023-08-18T06:38:28.281Z,101826.16
2023-08-18T06:40:55.094Z,101827.06
2023-08-18T06:43:21.814Z,101827.53
2023-08-18T06:45:48.689Z,101828.53
2023-08-18T06:48:15.339Z,101824.19
2023-08-18T06:50:42.180Z,101832.84
2023-08-18T06:53:08.885Z,101822.31
2023-08-18T06:55:47.543Z,101816.59
2023-08-18T06:58:22.378Z,101817.25
2023-08-18T07:00:51.275Z,101823.41
2023-08-18T07:03:18.224Z,101813.47
2023-08-18T07:05:45.147Z,101814.84
2023-08-18T07:08:11.984Z,101823.44
2023-08-18T07:10:38.792Z,101811.91
2023-08-18T07:13:06.260Z,101827.53
2023-08-18T07:15:33.859Z,101827.22
2023-08-18T07:18:00.874Z,101829.78
2023-08-18T07:20:27.858Z,101820.00
2023-08-18T07:22:56.573Z,101820.22
2023-08-18T07:25:23.731Z,101816.09
2023-08-18T07:27:50.609Z,101810.75
2023-08-18T07:30:17.331Z,101799.75
2023-08-18T07:32:44.106Z,101799.78
2023-08-18T07:35:11.104Z,101803.09
2023-08-18T07:37:54.910Z,101808.00
2023-08-18T07:40:23.029Z,101801.25
2023-08-18T07:42:49.824Z,101796.25
2023-08-18T07:45:17.101Z,101793.31
2023-08-18T07:47:45.266Z,101792.50
2023-08-18T07:50:12.965Z,101789.09
2023-08-18T07:52:40.012Z,101792.69
2023-08-18T07:55:09.006Z,101789.38
2023-08-18T07:57:36.722Z,101796.31
2023-08-18T08:00:15.995Z,101783.03
2023-08-18T08:02:42.882Z,101784.38
2023-08-18T08:05:09.945Z,101790.63
2023-08-18T08:07:36.997Z,101792.28
2023-08-18T08:10:05.422Z,101793.41
2023-08-18T08:12:33.050Z,101792.09
2023-08-18T08:15:00.013Z,101799.22
2023-08-18T08:17:30.891Z,101798.56
2023-08-18T08:20:00.638Z,101795.97
2023-08-18T08:22:28.760Z,101804.91
2023-08-18T08:24:56.153Z,101801.00
2023-08-18T08:27:23.064Z,101785.22
2023-08-18T08:29:53.204Z,101807.91
2023-08-18T08:32:19.912Z,101795.75
2023-08-18T08:34:50.697Z,101807.94
2023-08-18T08:37:20.961Z,101796.16
2023-08-18T08:39:48.039Z,101794.44
2023-08-18T08:42:14.867Z,101782.22
2023-08-18T08:44:41.598Z,101795.16
2023-08-18T08:47:08.347Z,101794.25
2023-08-18T08:49:37.198Z,101801.16
2023-08-18T08:52:07.937Z,101799.81
2023-08-18T08:54:42.980Z,101802.47
2023-08-18T08:57:11.244Z,101795.25
2023-08-18T08:59:38.124Z,101790.84
2023-08-18T09:02:05.015Z,101797.81
2023-08-18T09:04:31.857Z,101783.16
2023-08-18T09:06:59.293Z,101770.78
2023-08-18T09:09:26.190Z,101776.88
2023-08-18T09:12:00.881Z,101767.50
2023-08-18T09:14:28.513Z,101773.50
2023-08-18T09:16:55.420Z,101769.25
2023-08-18T09:19:24.101Z,101772.59
2023-08-18T09:21:57.020Z,101768.16
2023-08-18T09:24:24.003Z,101770.13
2023-08-18T09:26:50.938Z,101767.13
2023-08-18T09:29:17.929Z,101759.75
2023-08-18T09:31:46.842Z,101765.66
2023-08-18T09:34:22.958Z,101766.72
2023-08-18T09:36:56.137Z,101771.06
2023-08-18T09:39:23.499Z,101759.88
2023-08-18T09:41:57.910Z,101761.75
2023-08-18T09:44:25.293Z,101759.28
2023-08-18T09:46:56.177Z,101765.59
2023-08-18T09:49:24.607Z,101761.97
2023-08-18T09:52:05.346Z,101758.19
2023-08-18T09:55:07.422Z,101756.06
2023-08-18T09:58:02.043Z,101734.75
2023-08-18T10:00:30.124Z,101737.06
2023-08-18T10:03:00.677Z,101730.63
2023-08-18T10:05:28.932Z,101735.22
2023-08-18T10:07:56.340Z,101729.53
2023-08-18T10:10:23.294Z,101728.72
2023-08-18T10:12:52.192Z,101716.16
2023-08-18T10:15:19.880Z,101720.94
2023-08-18T10:17:46.571Z,101716.09
2023-08-18T10:20:13.668Z,101720.78
2023-08-18T10:22:43.197Z,101711.72
2023-08-18T10:25:10.634Z,101715.47
2023-08-18T10:27:39.614Z,101706.31
2023-08-18T10:30:09.399Z,101704.91
2023-08-18T10:32:37.269Z,101710.56
2023-08-18T10:35:21.409Z,101707.25
2023-08-18T10:37:52.193Z,101706.63
2023-08-18T10:40:31.089Z,101700.66
2023-08-18T10:43:14.248Z,101712.81
2023-08-18T10:45:43.128Z,101708.25
2023-08-18T10:48:14.573Z,101716.56
2023-08-18T10:50:46.900Z,101721.16
2023-08-18T10:53:14.478Z,101713.69
2023-08-18T10:55:43.002Z,101711.97
2023-08-18T10:58:10.322Z,101717.16
2023-08-18T11:00:38.463Z,101699.22
2023-08-18T11:03:07.490Z,101705.63
2023-08-18T11:05:35.117Z,101706.66
2023-08-18T11:08:02.460Z,101710.31
2023-08-18T11:10:29.651Z,101709.28
2023-08-18T11:12:59.572Z,101703.66
2023-08-18T11:15:27.087Z,101704.13
2023-08-18T11:17:53.958Z,101701.56
2023-08-18T11:20:21.104Z,101703.97
2023-08-18T11:22:52.958Z,101699.03
2023-08-18T11:25:22.877Z,101689.53
2023-08-18T11:27:52.399Z,101687.84
2023-08-18T11:30:20.523Z,101703.69
2023-08-18T11:32:49.236Z,101704.00
2023-08-18T11:35:17.190Z,101702.63
2023-08-18T11:37:49.056Z,101684.34
2023-08-18T11:40:21.148Z,101700.56
2023-08-18T11:42:50.312Z,101694.75
2023-08-18T11:45:19.766Z,101678.84
2023-08-18T11:47:48.919Z,101691.03
2023-08-18T11:50:24.919Z,101684.22
2023-08-18T11:52:53.328Z,101690.41
2023-08-18T11:55:36.349Z,101693.91
2023-08-18T11:58:07.370Z,101692.25
2023-08-18T12:00:39.327Z,101688.16
2023-08-18T12:03:24.267Z,101696.56
2023-08-18T12:05:52.381Z,101684.28
2023-08-18T12:08:19.105Z,101684.44
2023-08-18T12:10:51.442Z,101684.63
2023-08-18T12:13:19.247Z,101672.72
2023-08-18T12:15:46.440Z,101676.09
2023-08-18T12:18:13.526Z,101669.25
2023-08-18T12:20:40.305Z,101672.66
2023-08-18T12:23:07.011Z,101674.16
2023-08-18T12:25:33.798Z,101668.25
2023-08-18T12:28:00.874Z,101666.50
2023-08-18T12:30:27.900Z,101679.63
2023-08-18T12:32:54.699Z,101681.00
2023-08-18T12:35:21.757Z,101680.75
2023-08-18T12:37:48.599Z,101668.06
2023-08-18T12:40:15.848Z,101666.22
2023-08-18T12:42:43.027Z,101672.06
2023-08-18T12:45:11.541Z,101668.25
2023-08-18T12:47:39.431Z,101650.56
2023-08-18T12:50:08.289Z,101655.22
2023-08-18T12:52:35.163Z,101651.22
2023-08-18T12:55:02.087Z,101648.63
2023-08-18T12:57:30.452Z,101648.63
2023-08-18T12:59:57.136Z,101648.81
2023-08-18T13:02:24.918Z,101646.94
2023-08-18T13:04:51.672Z,101651.56
2023-08-18T13:07:19.076Z,101642.06
2023-08-18T13:09:46.366Z,101659.75
2023-08-18T13:12:18.439Z,101647.53
2023-08-18T13:14:46.864Z,101651.66
2023-08-18T13:17:14.034Z,101655.16
2023-08-18T13:19:47.691Z,101660.81
2023-08-18T13:22:18.825Z,101659.06
2023-08-18T13:24:46.029Z,101655.56
2023-08-18T13:27:15.449Z,101641.47
2023-08-18T13:29:48.319Z,101634.88
2023-08-18T13:32:15.272Z,101650.28
2023-08-18T13:34:46.584Z,101648.78
2023-08-18T13:37:16.655Z,101640.66
2023-08-18T13:39:45.515Z,101623.41
2023-08-18T13:42:20.198Z,101638.81
2023-08-18T13:44:50.003Z,101657.97
2023-08-18T13:47:17.485Z,101629.84
2023-08-18T13:49:51.889Z,101652.63
2023-08-18T13:52:20.015Z,101650.47
2023-08-18T13:54:52.252Z,101654.03
2023-08-18T13:57:25.695Z,101621.78
2023-08-18T13:59:55.982Z,101648.78
2023-08-18T14:02:23.328Z,101632.94
2023-08-18T14:04:57.079Z,101632.06
2023-08-18T14:07:26.372Z,101644.75
2023-08-18T14:09:55.877Z,101637.47
2023-08-18T14:12:26.279Z,101619.41
2023-08-18T14:14:57.131Z,101640.66
2023-08-18T14:17:47.328Z,101632.44
2023-08-18T14:20:20.831Z,101628.59
2023-08-18T14:22:56.153Z,101619.72
2023-08-18T14:25:26.666Z,101601.91
2023-08-18T14:27:57.162Z,101609.25
2023-08-18T14:30:27.713Z,101611.22
2023-08-18T14:32:59.279Z,101621.13
2023-08-18T14:35:26.562Z,101599.28
2023-08-18T14:37:56.756Z,101594.88
2023-08-18T14:40:23.757Z,101614.75
2023-08-18T14:43:03.465Z,101614.16
2023-08-18T14:45:36.214Z,101624.94
2023-08-18T14:48:07.082Z,101579.97
2023-08-18T14:50:36.257Z,101623.31
2023-08-18T14:53:06.115Z,101611.59
2023-08-18T14:55:33.632Z,101599.31
2023-08-18T14:58:02.946Z,101611.47
2023-08-18T15:00:36.872Z,101610.53
2023-08-18T15:03:09.423Z,101606.59
2023-08-18T15:05:46.525Z,101585.38
2023-08-18T15:08:23.721Z,101599.66
2023-08-18T15:10:51.449Z,101593.19
2023-08-18T15:13:24.623Z,101574.44
2023-08-18T15:15:55.358Z,101568.78
2023-08-18T15:18:40.799Z,101590.00
2023-08-18T15:21:15.111Z,101577.25
2023-08-18T15:23:42.771Z,101584.41
2023-08-18T15:26:22.261Z,101596.94
2023-08-18T15:28:59.252Z,101589.28
2023-08-18T15:31:27.346Z,101588.69
2023-08-18T15:33:57.459Z,101591.31
2023-08-18T15:36:44.676Z,101568.03
2023-08-18T15:39:16.045Z,101585.03
2023-08-18T15:42:16.840Z,101588.44
2023-08-18T15:45:14.578Z,101567.16
2023-08-18T15:48:07.574Z,101579.19
2023-08-18T15:57:02.292Z,101562.50
2023-08-18T16:00:11.752Z,101561.00
2023-08-18T16:02:53.079Z,101573.56
2023-08-18T16:05:42.976Z,101567.00
2023-08-18T16:08:40.470Z,101591.69
2023-08-18T16:11:20.688Z,101569.97
2023-08-18T16:14:14.167Z,101594.97
2023-08-18T16:19:41.498Z,101580.75
2023-08-18T16:22:28.489Z,101567.34
2023-08-18T16:25:18.143Z,101562.19
2023-08-18T16:27:54.488Z,101584.22
2023-08-18T16:30:51.134Z,101554.03
2023-08-18T16:33:24.041Z,101603.78
2023-08-18T16:36:30.329Z,101606.19
2023-08-18T16:40:17.948Z,101589.22
2023-08-18T16:47:43.681Z,101610.81
2023-08-18T16:50:07.867Z,101569.00
2023-08-18T16:52:51.474Z,101599.91
2023-08-18T16:55:58.794Z,101600.97
2023-08-18T16:59:00.043Z,101576.47
2023-08-18T17:04:52.837Z,101613.34
2023-08-18T17:08:33.072Z,101594.44
2023-08-18T17:10:29.174Z,101608.09
2023-08-18T17:13:14.466Z,101613.44
2023-08-18T17:15:49.631Z,101605.78
2023-08-18T17:21:28.518Z,101617.28
2023-08-18T17:27:04.407Z,101588.25
2023-08-18T17:29:40.647Z,101618.31
2023-08-18T17:32:44.213Z,101613.53
2023-08-18T17:38:04.973Z,101598.28
2023-08-18T17:40:41.709Z,101598.84
2023-08-18T17:46:11.454Z,101576.34
2023-08-18T17:52:23.078Z,101624.56
2023-08-18T17:55:10.480Z,101638.53
2023-08-18T17:57:47.479Z,101621.78
2023-08-18T18:00:23.972Z,101618.25
2023-08-18T18:02:58.986Z,101638.28
2023-08-18T18:05:54.226Z,101596.81
2023-08-18T18:08:22.453Z,101654.63
2023-08-18T18:10:58.958Z,101642.41
2023-08-18T18:13:45.893Z,101653.44
2023-08-18T18:16:30.661Z,101648.44
2023-08-18T18:19:16.108Z,101654.50
2023-08-18T18:21:59.494Z,101661.16
2023-08-18T18:24:43.672Z,101624.84
2023-08-18T18:30:08.985Z,101663.53
2023-08-18T18:32:40.053Z,101628.94
2023-08-18T18:35:21.921Z,101654.88
2023-08-18T18:37:53.031Z,101670.09
2023-08-18T18:40:45.763Z,101666.44
2023-08-18T18:46:20.484Z,101672.44
2023-08-18T18:49:13.953Z,101674.09
2023-08-18T18:51:50.019Z,101688.13
2023-08-18T18:54:21.000Z,101655.34
2023-08-18T18:57:17.659Z,101634.53
2023-08-18T18:59:55.152Z,101682.44
2023-08-18T19:26:40.200Z,101688.94
2023-08-18T19:43:40.522Z,101712.59
2023-08-18T19:50:43.830Z,101675.44
2023-08-18T19:53:14.636Z,101674.31
2023-08-18T19:55:44.789Z,101674.16
2023-08-18T20:05:46.042Z,101707.22
2023-08-18T20:08:14.013Z,101685.94
2023-08-18T20:10:44.570Z,101715.00
2023-08-18T20:13:11.704Z,101675.63
2023-08-18T20:15:38.853Z,101689.97
2023-08-18T20:18:05.856Z,101708.47
2023-08-18T20:20:33.130Z,101672.59
2023-08-18T20:23:00.080Z,101685.34
2023-08-18T20:25:27.384Z,101712.31
2023-08-18T20:27:54.604Z,101672.59
2023-08-18T20:30:23.285Z,101708.56
2023-08-18T20:33:01.334Z,101681.88
2023-08-18T20:35:28.350Z,101707.94
2023-08-18T20:37:56.425Z,101687.75
2023-08-18T20:40:23.382Z,101714.81
2023-08-18T20:42:50.823Z,101674.47
2023-08-18T20:45:22.784Z,101710.13
2023-08-18T20:47:49.698Z,101716.34
2023-08-18T20:50:16.688Z,101695.28
2023-08-18T20:52:46.431Z,101661.72
2023-08-18T20:55:13.444Z,101669.13
2023-08-18T20:57:40.453Z,101694.13
2023-08-18T21:00:11.840Z,101676.94
2023-08-18T21:02:38.890Z,101699.56
2023-08-18T21:05:08.268Z,101666.47
2023-08-18T21:07:36.709Z,101665.63
2023-08-18T21:10:07.170Z,101680.03
2023-08-18T21:12:38.263Z,101679.28
2023-08-18T21:15:06.803Z,101657.78
2023-08-18T21:17:34.768Z,101653.81
2023-08-18T21:20:01.726Z,101666.56
2023-08-18T21:22:29.852Z,101683.63
2023-08-18T21:25:06.945Z,101679.03
2023-08-18T21:27:34.676Z,101702.38
2023-08-18T21:30:06.270Z,101693.22
2023-08-18T21:32:33.527Z,101677.38
2023-08-18T21:35:04.896Z,101664.84
2023-08-18T21:37:33.149Z,101711.31
2023-08-18T21:40:01.583Z,101653.38
2023-08-18T21:42:33.801Z,101693.38
2023-08-18T21:45:02.522Z,101675.13
2023-08-18T21:47:32.158Z,101640.97
2023-08-18T21:49:59.066Z,101679.63
2023-08-18T21:52:27.188Z,101680.38
2023-08-18T21:54:55.035Z,101701.63
2023-08-18T21:57:21.928Z,101674.97
2023-08-18T21:59:48.728Z,101679.03
2023-08-18T22:02:15.476Z,101675.19
2023-08-18T22:04:42.232Z,101678.00
2023-08-18T22:07:09.528Z,101693.28
2023-08-18T22:09:36.339Z,101679.25
2023-08-18T22:12:07.334Z,101666.03
2023-08-18T22:14:34.144Z,101699.09
2023-08-18T22:17:01.592Z,101657.28
2023-08-18T22:19:29.712Z,101696.34
2023-08-18T22:21:57.940Z,101694.31
2023-08-18T22:24:26.109Z,101648.78
2023-08-18T22:26:54.494Z,101682.22
2023-08-18T22:29:25.093Z,101665.03
2023-08-18T22:31:52.057Z,101670.13
2023-08-18T22:34:18.858Z,101644.31
2023-08-18T22:36:46.671Z,101650.72
2023-08-18T22:39:15.773Z,101629.91
2023-08-18T22:41:43.897Z,101636.06
2023-08-18T22:44:10.507Z,101657.78
2023-08-18T22:46:38.579Z,101637.47
2023-08-18T22:49:05.436Z,101665.81
2023-08-18T22:51:32.493Z,101627.47
2023-08-18T22:53:59.308Z,101613.50
2023-08-18T22:56:28.449Z,101620.84
2023-08-18T22:58:56.341Z,101646.22
2023-08-18T23:01:23.379Z,101620.56
2023-08-18T23:03:51.364Z,101618.91
2023-08-18T23:06:18.424Z,101644.13
2023-08-18T23:08:45.329Z,101622.97
2023-08-18T23:11:12.174Z,101639.81
2023-08-18T23:13:42.045Z,101647.63
2023-08-18T23:16:08.908Z,101633.06
2023-08-18T23:18:35.809Z,101648.63
2023-08-18T23:21:03.710Z,101637.91
2023-08-18T23:23:30.463Z,101612.50
2023-08-18T23:25:57.357Z,101641.63
2023-08-18T23:28:24.265Z,101635.97
2023-08-18T23:30:51.136Z,101649.06
2023-08-18T23:33:19.460Z,101631.47
2023-08-18T23:35:47.250Z,101650.22
2023-08-18T23:38:14.092Z,101645.97
2023-08-18T23:40:43.344Z,101623.31
2023-08-18T23:43:15.300Z,101632.91
2023-08-18T23:45:43.131Z,101617.16
2023-08-18T23:48:10.080Z,101644.47
2023-08-18T23:50:36.855Z,101622.84
2023-08-18T23:53:05.106Z,101612.25
2023-08-18T23:55:32.282Z,101627.81
2023-08-18T23:57:59.208Z,101648.31
